Main page
METAR-TAF:

METAR-TAF

Airports :

Palma de Mallorca Airport

Palma de Mallorca, Spain

latitude: 39-33N, longitude: 002-44E, elevation: 4 m

Current weather observation

The report was made 22 minutes ago, at 22:00 UTC
Wind 13 kt from the East/Northeast
Temperature 25°C
Humidity 79%
Pressure 1010 hPa
Visibility 10 km or more
no clouds below 1500 m and no cumulonimbus

METAR: LEPA 162200Z 07013KT CAVOK 25/21 Q1010 NOSIG

Time: 00:22 (22:22 UTC)

Forecast

The report was made 2 hours and 55 minutes ago, at 19:27 UTC
Forecast valid from 16 at 19 UTC to 17 at 18 UTC
Wind 8 kt from the West
Visibility 10 km or more
Few clouds at a height of 3000 ft
Temporary
from 16 at 20 UTC to 16 at 23 UTC
Wind 10 kt from the East/Northeast
Becoming
from 16 at 20 UTC to 16 at 22 UTC
Wind 3 kt from variable directions
Becoming
from 17 at 10 UTC to 17 at 12 UTC
Wind 10 kt from the South/Southwest

TAF: LEPA 161927Z 1619/1718 27008KT 9999 FEW030 TX28/1712Z TN19/1706Z TEMPO 1620/1623 07010KT BECMG 1620/1622 VRB03KT BECMG 1710/1712 21010KT

Weather observations and forecasts of more than 4000 airports (METAR and TAF reports).

The available stations are represented by yellow and red dots on the map.

Hover mouse over dot to see the name of the station.

Then click to see weather observations and forecasts.

To change the map : click on the green buttons with a black cross to zoom in, on the green button with a dash to zoom out, or on the green arrows for adjacent maps.


METAR-TAF: